createdAt,value
2023-04-27T00:01:53.964Z,26.00
2023-04-27T00:04:24.156Z,26.00
2023-04-27T00:06:54.623Z,26.00
2023-04-27T00:09:27.322Z,26.00
2023-04-27T00:11:57.738Z,26.00
2023-04-27T00:14:29.265Z,26.00
2023-04-27T00:16:59.727Z,25.99
2023-04-27T00:19:30.940Z,25.98
2023-04-27T00:22:01.541Z,25.98
2023-04-27T00:24:33.775Z,25.98
2023-04-27T00:27:03.954Z,25.98
2023-04-27T00:29:34.168Z,25.96
2023-04-27T00:32:04.373Z,25.96
2023-04-27T00:34:34.426Z,25.95
2023-04-27T00:37:04.214Z,25.95
2023-04-27T00:39:38.092Z,25.95
2023-04-27T00:42:11.919Z,25.93
2023-04-27T00:44:42.055Z,25.93
2023-04-27T00:47:13.875Z,25.93
2023-04-27T00:49:43.639Z,25.91
2023-04-27T00:52:13.942Z,25.90
2023-04-27T00:54:45.985Z,25.89
2023-04-27T00:57:17.008Z,25.88
2023-04-27T00:59:47.139Z,25.87
2023-04-27T01:02:17.476Z,25.86
2023-04-27T01:04:47.845Z,25.85
2023-04-27T01:07:18.369Z,25.82
2023-04-27T01:09:51.005Z,25.80
2023-04-27T01:12:21.210Z,25.78
2023-04-27T01:14:51.480Z,25.77
2023-04-27T01:17:22.371Z,25.76
2023-04-27T01:19:52.050Z,25.75
2023-04-27T01:22:22.278Z,25.74
2023-04-27T01:24:54.537Z,25.73
2023-04-27T01:27:24.458Z,25.72
2023-04-27T01:29:54.532Z,25.71
2023-04-27T01:32:24.989Z,25.69
2023-04-27T01:34:55.590Z,25.68
2023-04-27T01:37:25.828Z,25.67
2023-04-27T01:39:57.483Z,25.66
2023-04-27T01:42:27.323Z,25.64
2023-04-27T01:44:57.275Z,25.62
2023-04-27T01:47:27.366Z,25.61
2023-04-27T01:49:57.618Z,25.58
2023-04-27T01:52:27.841Z,25.58
2023-04-27T01:54:59.680Z,25.57
2023-04-27T01:57:29.866Z,25.56
2023-04-27T02:00:00.148Z,25.53
2023-04-27T02:02:30.455Z,25.53
2023-04-27T02:05:00.334Z,25.52
2023-04-27T02:07:29.898Z,25.50
2023-04-27T02:10:02.079Z,25.48
2023-04-27T02:12:32.272Z,25.46
2023-04-27T02:15:01.881Z,25.45
2023-04-27T02:17:34.472Z,25.44
2023-04-27T02:20:05.849Z,25.43
2023-04-27T02:22:36.179Z,25.42
2023-04-27T02:25:09.544Z,25.41
2023-04-27T02:27:40.405Z,25.41
2023-04-27T02:30:13.780Z,25.40
2023-04-27T02:32:44.616Z,25.39
2023-04-27T02:35:15.076Z,25.39
2023-04-27T02:37:45.102Z,25.38
2023-04-27T02:40:17.304Z,25.37
2023-04-27T02:42:47.258Z,25.36
2023-04-27T02:45:24.468Z,25.36
2023-04-27T02:47:54.749Z,25.35
2023-04-27T02:50:25.066Z,25.33
2023-04-27T02:52:55.649Z,25.29
2023-04-27T02:55:28.003Z,25.25
2023-04-27T02:57:58.199Z,25.18
2023-04-27T03:00:28.918Z,25.14
2023-04-27T03:02:59.082Z,25.11
2023-04-27T03:05:32.112Z,25.07
2023-04-27T03:08:03.763Z,25.06
2023-04-27T03:10:35.902Z,25.05
2023-04-27T03:13:06.623Z,25.04
2023-04-27T03:15:38.960Z,25.04
2023-04-27T03:18:09.520Z,25.04
2023-04-27T03:20:39.987Z,25.04
2023-04-27T03:23:10.165Z,25.04
2023-04-27T03:25:42.357Z,25.04
2023-04-27T03:28:12.050Z,25.05
2023-04-27T03:30:43.156Z,25.04
2023-04-27T03:33:13.305Z,25.04
2023-04-27T03:35:43.703Z,25.02
2023-04-27T03:38:13.930Z,24.97
2023-04-27T03:40:46.015Z,24.94
2023-04-27T03:43:15.728Z,24.89
2023-04-27T03:45:46.196Z,24.83
2023-04-27T03:48:17.467Z,24.79
2023-04-27T03:50:47.860Z,24.77
2023-04-27T03:53:18.307Z,24.75
2023-04-27T03:55:50.599Z,24.75
2023-04-27T03:58:20.844Z,24.75
2023-04-27T04:00:51.120Z,24.75
2023-04-27T04:03:21.279Z,24.75
2023-04-27T04:05:51.799Z,24.76
2023-04-27T04:08:21.425Z,24.77
2023-04-27T04:10:53.532Z,24.80
2023-04-27T04:13:23.646Z,24.80
2023-04-27T04:16:03.342Z,24.81
2023-04-27T04:18:33.603Z,24.81
2023-04-27T04:21:04.112Z,24.82
2023-04-27T04:23:34.305Z,24.84
2023-04-27T04:26:06.190Z,24.86
2023-04-27T04:28:36.506Z,24.88
2023-04-27T04:31:08.846Z,24.90
2023-04-27T04:33:39.087Z,24.93
2023-04-27T04:36:09.938Z,24.96
2023-04-27T04:38:40.188Z,24.99
2023-04-27T04:41:12.691Z,25.03
2023-04-27T04:43:42.927Z,25.06
2023-04-27T04:46:13.092Z,25.09
2023-04-27T04:48:42.690Z,25.13
2023-04-27T04:51:12.255Z,25.18
2023-04-27T04:53:50.595Z,25.23
2023-04-27T04:56:22.387Z,25.28
2023-04-27T04:58:52.333Z,25.32
2023-04-27T05:01:22.679Z,25.35
2023-04-27T05:03:53.072Z,25.39
2023-04-27T05:06:23.012Z,25.43
2023-04-27T05:08:52.997Z,25.47
2023-04-27T05:11:25.393Z,25.52
2023-04-27T05:13:55.543Z,25.55
2023-04-27T05:16:26.904Z,25.60
2023-04-27T05:18:57.320Z,25.65
2023-04-27T05:21:27.044Z,25.71
2023-04-27T05:23:56.733Z,25.76
2023-04-27T05:26:28.539Z,25.83
2023-04-27T05:28:58.795Z,25.89
2023-04-27T05:31:29.266Z,25.96
2023-04-27T05:33:59.491Z,26.02
2023-04-27T05:36:30.097Z,26.09
2023-04-27T05:39:00.250Z,26.17
2023-04-27T05:41:32.734Z,26.25
2023-04-27T05:44:02.865Z,26.31
2023-04-27T05:46:32.862Z,26.38
2023-04-27T05:49:02.929Z,26.45
2023-04-27T05:51:34.137Z,26.51
2023-04-27T05:54:04.313Z,26.56
2023-04-27T05:56:38.235Z,26.63
2023-04-27T05:59:08.538Z,26.70
2023-04-27T06:01:39.368Z,26.75
2023-04-27T06:04:09.605Z,26.82
2023-04-27T06:06:39.907Z,26.87
2023-04-27T06:09:09.608Z,26.95
2023-04-27T06:11:41.292Z,27.00
2023-04-27T06:14:11.560Z,27.04
2023-04-27T06:16:42.562Z,27.10
2023-04-27T06:19:12.947Z,27.14
2023-04-27T06:21:42.827Z,27.18
2023-04-27T06:24:12.949Z,27.24
2023-04-27T06:26:44.872Z,27.29
2023-04-27T06:29:14.725Z,27.35
2023-04-27T06:31:45.438Z,27.39
2023-04-27T06:34:15.447Z,27.48
2023-04-27T06:36:45.191Z,27.53
2023-04-27T06:39:15.045Z,27.59
2023-04-27T06:41:46.838Z,27.65
2023-04-27T06:44:16.497Z,27.68
2023-04-27T06:46:46.519Z,27.73
2023-04-27T06:49:16.658Z,27.78
2023-04-27T06:51:47.069Z,27.82
2023-04-27T06:54:17.441Z,27.87
2023-04-27T06:56:49.632Z,27.93
2023-04-27T06:59:19.681Z,27.97
2023-04-27T07:01:49.528Z,28.03
2023-04-27T07:04:19.924Z,28.08
2023-04-27T07:06:50.162Z,28.13
2023-04-27T07:09:27.072Z,28.17
2023-04-27T07:12:01.636Z,28.23
2023-04-27T07:14:33.965Z,28.29
2023-04-27T07:17:04.199Z,28.34
2023-04-27T07:19:34.794Z,28.41
2023-04-27T07:22:05.129Z,28.46
2023-04-27T07:24:35.399Z,28.53
2023-04-27T07:27:07.661Z,28.60
2023-04-27T07:29:38.318Z,28.66
2023-04-27T07:32:09.280Z,28.73
2023-04-27T07:34:51.796Z,28.78
2023-04-27T07:37:22.413Z,28.84
2023-04-27T07:39:54.301Z,28.90
2023-04-27T07:42:26.454Z,28.96
2023-04-27T07:44:56.500Z,29.00
2023-04-27T07:47:26.736Z,29.07
2023-04-27T07:49:56.855Z,29.11
2023-04-27T07:52:26.981Z,29.17
2023-04-27T07:54:57.551Z,29.22
2023-04-27T07:57:29.944Z,29.26
2023-04-27T08:00:00.423Z,29.29
2023-04-27T08:02:32.162Z,29.35
2023-04-27T08:05:03.248Z,29.39
2023-04-27T08:07:36.085Z,29.43
2023-04-27T08:10:11.023Z,29.48
2023-04-27T08:12:42.992Z,29.52
2023-04-27T08:15:14.611Z,29.56
2023-04-27T08:17:45.343Z,29.60
2023-04-27T08:20:15.989Z,29.64
2023-04-27T08:22:46.445Z,29.68
2023-04-27T08:25:16.617Z,29.72
2023-04-27T08:27:48.340Z,29.75
2023-04-27T08:30:19.002Z,29.77
2023-04-27T08:32:49.075Z,29.79
2023-04-27T08:35:19.638Z,29.81
2023-04-27T08:37:50.132Z,29.82
2023-04-27T08:40:20.893Z,29.86
2023-04-27T08:43:01.609Z,29.89
2023-04-27T08:45:31.896Z,29.90
2023-04-27T08:48:01.705Z,29.92
2023-04-27T08:50:32.056Z,29.94
2023-04-27T08:53:02.370Z,29.98
2023-04-27T08:55:32.890Z,30.01
2023-04-27T08:58:04.596Z,30.04
2023-04-27T09:00:42.937Z,30.09
2023-04-27T09:03:25.722Z,30.11
2023-04-27T09:06:05.355Z,30.12
2023-04-27T09:08:47.070Z,30.13
2023-04-27T09:11:18.883Z,30.16
2023-04-27T09:13:51.080Z,30.18
2023-04-27T09:16:28.193Z,30.21
2023-04-27T09:18:59.865Z,30.23
2023-04-27T09:21:33.009Z,30.26
2023-04-27T09:24:13.188Z,30.28
2023-04-27T09:26:44.179Z,30.28
2023-04-27T09:29:16.849Z,30.31
2023-04-27T09:31:47.139Z,30.33
2023-04-27T09:34:17.407Z,30.34
2023-04-27T09:36:50.149Z,30.35
2023-04-27T09:39:20.625Z,30.38
2023-04-27T09:41:51.900Z,30.39
2023-04-27T09:44:23.884Z,30.42
2023-04-27T09:46:55.774Z,30.43
2023-04-27T09:49:28.805Z,30.44
2023-04-27T09:51:59.342Z,30.45
2023-04-27T09:54:36.329Z,30.47
2023-04-27T09:57:23.681Z,30.47
2023-04-27T10:00:33.027Z,30.47
2023-04-27T10:03:26.003Z,30.47
2023-04-27T10:06:52.524Z,30.46
2023-04-27T10:09:25.797Z,30.46
2023-04-27T10:11:57.103Z,30.47
2023-04-27T10:14:30.720Z,30.48
2023-04-27T10:17:03.760Z,30.50
2023-04-27T10:19:33.384Z,30.52
2023-04-27T10:22:05.813Z,30.54
2023-04-27T10:24:38.744Z,30.55
2023-04-27T10:27:12.499Z,30.57
2023-04-27T10:29:45.520Z,30.58
2023-04-27T10:32:24.510Z,30.59
2023-04-27T10:35:06.781Z,30.60
2023-04-27T10:37:48.072Z,30.61
2023-04-27T10:40:19.633Z,30.63
2023-04-27T10:42:51.131Z,30.63
2023-04-27T10:45:31.963Z,30.65
2023-04-27T10:48:04.983Z,30.64
2023-04-27T10:50:35.163Z,30.64
2023-04-27T10:53:08.704Z,30.66
2023-04-27T10:55:39.649Z,30.66
2023-04-27T10:58:09.512Z,30.67
2023-04-27T11:00:45.036Z,30.68
2023-04-27T11:03:20.208Z,30.69
2023-04-27T11:05:52.729Z,30.70
2023-04-27T11:08:22.747Z,30.70
2023-04-27T11:10:54.494Z,30.72
2023-04-27T11:13:29.104Z,30.73
2023-04-27T11:16:01.519Z,30.74
2023-04-27T11:18:35.377Z,30.75
2023-04-27T11:21:13.474Z,30.75
2023-04-27T11:23:44.301Z,30.75
2023-04-27T11:26:16.920Z,30.76
2023-04-27T11:28:59.285Z,30.77
2023-04-27T11:31:30.698Z,30.77
2023-04-27T11:34:04.037Z,30.78
2023-04-27T11:36:34.391Z,30.77
2023-04-27T11:39:06.724Z,30.77
2023-04-27T11:41:39.668Z,30.78
2023-04-27T11:44:12.603Z,30.77
2023-04-27T11:46:48.092Z,30.77
2023-04-27T11:49:20.391Z,30.77
2023-04-27T11:51:51.454Z,30.77
2023-04-27T11:54:22.110Z,30.77
2023-04-27T11:56:52.159Z,30.77
2023-04-27T11:59:23.984Z,30.77
2023-04-27T12:01:54.788Z,30.77
2023-04-27T12:04:26.145Z,30.77
2023-04-27T12:06:57.188Z,30.78
2023-04-27T12:09:27.303Z,30.77
2023-04-27T12:11:57.552Z,30.78
2023-04-27T12:14:27.783Z,30.78
2023-04-27T12:16:58.126Z,30.79
2023-04-27T12:19:31.409Z,30.79
2023-04-27T12:22:01.954Z,30.78
2023-04-27T12:24:32.692Z,30.78
2023-04-27T12:27:03.743Z,30.78
2023-04-27T12:29:34.361Z,30.77
2023-04-27T12:32:04.571Z,30.77
2023-04-27T12:34:37.074Z,30.77
2023-04-27T12:37:07.611Z,30.76
2023-04-27T12:39:37.294Z,30.75
2023-04-27T12:42:07.739Z,30.74
2023-04-27T12:44:38.409Z,30.74
2023-04-27T12:47:08.111Z,30.74
2023-04-27T12:49:40.963Z,30.73
2023-04-27T12:52:10.958Z,30.70
2023-04-27T12:54:41.226Z,30.70
2023-04-27T12:57:11.503Z,30.70
2023-04-27T12:59:42.257Z,30.69
2023-04-27T13:02:13.315Z,30.68
2023-04-27T13:04:45.185Z,30.69
2023-04-27T13:07:15.637Z,30.67
2023-04-27T13:09:45.931Z,30.66
2023-04-27T13:12:16.410Z,30.66
2023-04-27T13:14:47.549Z,30.64
2023-04-27T13:17:18.049Z,30.63
2023-04-27T13:19:50.293Z,30.63
2023-04-27T13:22:21.397Z,30.61
2023-04-27T13:24:51.666Z,30.58
2023-04-27T13:27:25.509Z,30.57
2023-04-27T13:29:55.521Z,30.54
2023-04-27T13:32:25.656Z,30.54
2023-04-27T13:34:57.748Z,30.51
2023-04-27T13:37:27.573Z,30.50
2023-04-27T13:39:57.845Z,30.49
2023-04-27T13:42:29.902Z,30.48
2023-04-27T13:45:00.147Z,30.46
2023-04-27T13:47:37.481Z,30.45
2023-04-27T13:50:12.468Z,30.43
2023-04-27T13:52:42.983Z,30.42
2023-04-27T13:55:14.148Z,30.40
2023-04-27T13:57:44.424Z,30.40
2023-04-27T14:00:16.928Z,30.38
2023-04-27T14:02:47.012Z,30.35
2023-04-27T14:05:19.326Z,30.35
2023-04-27T14:07:49.570Z,30.33
2023-04-27T14:10:19.326Z,30.31
2023-04-27T14:12:49.597Z,30.29
2023-04-27T14:15:21.052Z,30.27
2023-04-27T14:17:51.192Z,30.26
2023-04-27T14:20:23.069Z,30.25
2023-04-27T14:22:53.460Z,30.23
2023-04-27T14:25:24.104Z,30.22
2023-04-27T14:27:55.092Z,30.22
2023-04-27T14:30:25.262Z,30.19
2023-04-27T14:32:55.896Z,30.18
2023-04-27T14:35:28.991Z,30.17
2023-04-27T14:38:02.627Z,30.15
2023-04-27T14:40:34.477Z,30.13
2023-04-27T14:43:04.770Z,30.12
2023-04-27T14:45:47.783Z,30.11
2023-04-27T14:48:21.384Z,30.08
2023-04-27T14:50:53.162Z,30.08
2023-04-27T14:53:23.131Z,30.06
2023-04-27T14:55:53.355Z,30.05
2023-04-27T14:58:23.421Z,30.03
2023-04-27T15:00:54.368Z,30.01
2023-04-27T15:03:24.911Z,30.00
2023-04-27T15:05:56.786Z,29.99
2023-04-27T15:08:27.018Z,29.96
2023-04-27T15:11:00.202Z,29.95
2023-04-27T15:13:30.911Z,29.93
2023-04-27T15:16:05.200Z,29.92
2023-04-27T15:18:35.717Z,29.90
2023-04-27T15:21:07.747Z,29.88
2023-04-27T15:23:38.009Z,29.87
2023-04-27T15:26:08.087Z,29.86
2023-04-27T15:28:38.523Z,29.83
2023-04-27T15:31:08.753Z,29.83
2023-04-27T15:33:38.568Z,29.81
2023-04-27T15:36:11.428Z,29.80
2023-04-27T15:38:41.624Z,29.79
2023-04-27T15:41:11.492Z,29.77
2023-04-27T15:43:41.867Z,29.76
2023-04-27T15:46:11.965Z,29.75
2023-04-27T15:48:42.252Z,29.73
2023-04-27T15:51:14.397Z,29.72
2023-04-27T15:53:45.715Z,29.71
2023-04-27T15:56:16.883Z,29.68
2023-04-27T15:58:48.564Z,29.67
2023-04-27T16:01:19.900Z,29.66
2023-04-27T16:03:50.301Z,29.64
2023-04-27T16:06:22.411Z,29.63
2023-04-27T16:08:52.133Z,29.60
2023-04-27T16:11:22.355Z,29.60
2023-04-27T16:13:52.434Z,29.59
2023-04-27T16:16:23.810Z,29.57
2023-04-27T16:18:54.303Z,29.56
2023-04-27T16:21:27.289Z,29.55
2023-04-27T16:23:57.511Z,29.52
2023-04-27T16:26:28.390Z,29.52
2023-04-27T16:28:58.850Z,29.50
2023-04-27T16:31:29.585Z,29.49
2023-04-27T16:34:00.014Z,29.47
2023-04-27T16:36:34.045Z,29.44
2023-04-27T16:39:05.821Z,29.43
2023-04-27T16:41:35.946Z,29.41
2023-04-27T16:44:06.202Z,29.39
2023-04-27T16:46:37.087Z,29.37
2023-04-27T16:49:07.306Z,29.36
2023-04-27T16:51:39.328Z,29.34
2023-04-27T16:54:11.417Z,29.33
2023-04-27T16:56:41.955Z,29.31
2023-04-27T16:59:12.911Z,29.30
2023-04-27T17:01:43.900Z,29.29
2023-04-27T17:04:14.579Z,29.26
2023-04-27T17:06:48.755Z,29.25
2023-04-27T17:09:19.208Z,29.24
2023-04-27T17:11:49.407Z,29.23
2023-04-27T17:14:21.562Z,29.21
2023-04-27T17:16:52.738Z,29.19
2023-04-27T17:19:22.965Z,29.19
2023-04-27T17:21:55.033Z,29.18
2023-04-27T17:24:26.944Z,29.16
2023-04-27T17:26:57.764Z,29.15
2023-04-27T17:29:28.241Z,29.14
2023-04-27T17:31:58.567Z,29.13
2023-04-27T17:34:29.524Z,29.11
2023-04-27T17:37:01.465Z,29.10
2023-04-27T17:39:34.870Z,29.09
2023-04-27T17:42:07.250Z,29.08
2023-04-27T17:44:39.732Z,29.07
2023-04-27T17:47:12.706Z,29.05
2023-04-27T17:49:43.475Z,29.05
2023-04-27T17:52:15.827Z,29.04
2023-04-27T17:54:47.384Z,29.02
2023-04-27T17:57:18.640Z,29.01
2023-04-27T17:59:50.656Z,29.00
2023-04-27T18:02:20.585Z,28.99
2023-04-27T18:04:50.950Z,28.97
2023-04-27T18:07:23.147Z,28.97
2023-04-27T18:09:53.462Z,28.95
2023-04-27T18:12:23.995Z,28.94
2023-04-27T18:14:54.034Z,28.94
2023-04-27T18:17:24.086Z,28.93
2023-04-27T18:20:07.618Z,28.92
2023-04-27T18:22:42.146Z,28.91
2023-04-27T18:25:13.824Z,28.89
2023-04-27T18:27:45.809Z,28.88
2023-04-27T18:30:17.488Z,28.87
2023-04-27T18:32:52.163Z,28.88
2023-04-27T18:35:22.720Z,28.85
2023-04-27T18:37:55.764Z,28.85
2023-04-27T18:40:26.460Z,28.84
2023-04-27T18:42:56.822Z,28.83
2023-04-27T18:45:27.310Z,28.82
2023-04-27T18:47:57.691Z,28.80
2023-04-27T18:50:28.160Z,28.80
2023-04-27T18:53:01.949Z,28.79
2023-04-27T18:55:32.302Z,28.78
2023-04-27T18:58:06.349Z,28.77
2023-04-27T19:00:36.740Z,28.76
2023-04-27T19:03:07.489Z,28.74
2023-04-27T19:05:38.227Z,28.74
2023-04-27T19:08:10.845Z,28.73
2023-04-27T19:10:41.789Z,28.72
2023-04-27T19:13:12.747Z,28.71
2023-04-27T19:15:42.697Z,28.71
2023-04-27T19:18:13.366Z,28.69
2023-04-27T19:20:51.256Z,28.67
2023-04-27T19:23:23.587Z,28.66
2023-04-27T19:25:57.512Z,28.65
2023-04-27T19:28:30.754Z,28.63
2023-04-27T19:31:01.440Z,28.63
2023-04-27T19:33:32.184Z,28.62
2023-04-27T19:36:02.179Z,28.61
2023-04-27T19:38:35.483Z,28.60
2023-04-27T19:41:07.412Z,28.58
2023-04-27T19:43:37.798Z,28.58
2023-04-27T19:46:08.420Z,28.56
2023-04-27T19:48:38.848Z,28.55
2023-04-27T19:51:12.415Z,28.55
2023-04-27T19:53:44.894Z,28.54
2023-04-27T19:56:15.366Z,28.53
2023-04-27T19:58:45.523Z,28.52
2023-04-27T20:01:15.813Z,28.51
2023-04-27T20:03:46.421Z,28.51
2023-04-27T20:06:17.402Z,28.49
2023-04-27T20:08:49.813Z,28.49
2023-04-27T20:11:20.039Z,28.48
2023-04-27T20:13:50.854Z,28.45
2023-04-27T20:16:22.414Z,28.45
2023-04-27T20:18:52.794Z,28.44
2023-04-27T20:21:23.213Z,28.43
2023-04-27T20:23:55.603Z,28.43
2023-04-27T20:26:26.548Z,28.41
2023-04-27T20:28:57.068Z,28.39
2023-04-27T20:31:27.251Z,28.39
2023-04-27T20:33:57.976Z,28.36
2023-04-27T20:36:28.825Z,28.36
2023-04-27T20:39:02.399Z,28.35
2023-04-27T20:41:34.055Z,28.33
2023-04-27T20:44:04.456Z,28.33
2023-04-27T20:46:35.040Z,28.32
2023-04-27T20:49:05.594Z,28.31
2023-04-27T20:51:36.995Z,28.31
2023-04-27T20:54:08.847Z,28.30
2023-04-27T20:56:39.109Z,28.30
2023-04-27T20:59:09.402Z,28.30
2023-04-27T21:01:39.770Z,28.30
2023-04-27T21:04:10.435Z,28.29
2023-04-27T21:06:42.027Z,28.29
2023-04-27T21:09:14.204Z,28.30
2023-04-27T21:11:44.942Z,28.29
2023-04-27T21:14:14.863Z,28.29
2023-04-27T21:16:45.427Z,28.28
2023-04-27T21:19:17.017Z,28.29
2023-04-27T21:21:47.367Z,28.29
2023-04-27T21:24:20.145Z,28.29
2023-04-27T21:26:50.673Z,28.30
2023-04-27T21:29:20.982Z,28.30
2023-04-27T21:31:51.561Z,28.30
2023-04-27T21:34:22.027Z,28.31
2023-04-27T21:36:52.824Z,28.30
2023-04-27T21:39:25.076Z,28.30
2023-04-27T21:41:55.304Z,28.31
2023-04-27T21:44:25.281Z,28.31
2023-04-27T21:46:55.311Z,28.31
2023-04-27T21:49:26.967Z,28.31
2023-04-27T21:51:56.643Z,28.30
2023-04-27T21:54:28.557Z,28.31
2023-04-27T21:56:58.445Z,28.30
2023-04-27T21:59:28.792Z,28.29
2023-04-27T22:01:59.698Z,28.30
2023-04-27T22:04:30.431Z,28.28
2023-04-27T22:07:00.945Z,28.29
2023-04-27T22:09:32.906Z,28.28
2023-04-27T22:12:03.403Z,28.26
2023-04-27T22:14:34.013Z,28.26
2023-04-27T22:17:04.318Z,28.26
2023-04-27T22:19:34.571Z,28.25
2023-04-27T22:22:04.643Z,28.25
2023-04-27T22:24:37.005Z,28.26
2023-04-27T22:27:06.902Z,28.24
2023-04-27T22:29:37.063Z,28.23
2023-04-27T22:32:10.147Z,28.23
2023-04-27T22:34:40.090Z,28.22
2023-04-27T22:37:10.618Z,28.21
2023-04-27T22:39:42.582Z,28.21
2023-04-27T22:42:13.037Z,28.21
2023-04-27T22:44:43.428Z,28.20
2023-04-27T22:47:14.676Z,28.19
2023-04-27T22:49:45.596Z,28.19
2023-04-27T22:52:16.895Z,28.18
2023-04-27T22:54:48.988Z,28.19
2023-04-27T22:57:19.409Z,28.18
2023-04-27T22:59:51.955Z,28.16
2023-04-27T23:02:21.942Z,28.15
2023-04-27T23:04:52.264Z,28.14
2023-04-27T23:07:23.623Z,28.12
2023-04-27T23:09:55.625Z,28.09
2023-04-27T23:12:27.286Z,28.09
2023-04-27T23:14:57.006Z,28.06
2023-04-27T23:17:31.168Z,28.04
2023-04-27T23:20:02.617Z,28.01
2023-04-27T23:22:33.417Z,27.99
2023-04-27T23:25:05.182Z,27.96
2023-04-27T23:27:35.054Z,27.91
2023-04-27T23:30:05.490Z,27.88
2023-04-27T23:32:37.316Z,27.85
2023-04-27T23:35:08.650Z,27.80
2023-04-27T23:37:38.926Z,27.78
2023-04-27T23:40:14.670Z,27.76
2023-04-27T23:42:44.892Z,27.73
2023-04-27T23:45:15.577Z,27.71
2023-04-27T23:47:46.396Z,27.68
2023-04-27T23:50:16.964Z,27.66
2023-04-27T23:52:47.462Z,27.63
2023-04-27T23:55:19.977Z,27.62
2023-04-27T23:57:54.904Z,27.59
